createdAt,value
2023-09-17T00:02:08.996Z,101495.88
2023-09-17T00:07:08.110Z,101499.25
2023-09-17T00:12:08.026Z,101497.75
2023-09-17T00:17:08.498Z,101505.16
2023-09-17T00:22:10.382Z,101511.31
2023-09-17T00:27:09.627Z,101516.31
2023-09-17T00:32:11.318Z,101510.66
2023-09-17T00:37:12.680Z,101503.88
2023-09-17T00:42:12.995Z,101503.66
2023-09-17T00:47:14.683Z,101499.09
2023-09-17T00:52:18.529Z,101494.09
2023-09-17T00:57:18.978Z,101487.66
2023-09-17T01:02:25.450Z,101493.25
2023-09-17T01:07:24.877Z,101500.91
2023-09-17T01:12:23.965Z,101497.13
2023-09-17T01:17:26.028Z,101497.56
2023-09-17T01:22:30.687Z,101493.06
2023-09-17T01:27:31.315Z,101483.47
2023-09-17T01:32:30.362Z,101482.03
2023-09-17T01:37:32.738Z,101473.81
2023-09-17T01:42:34.209Z,101470.94
2023-09-17T01:47:34.207Z,101467.28
2023-09-17T01:52:35.352Z,101466.06
2023-09-17T01:57:35.699Z,101470.41
2023-09-17T02:02:34.685Z,101473.81
2023-09-17T02:07:33.742Z,101477.53
2023-09-17T02:12:32.907Z,101473.56
2023-09-17T02:17:33.275Z,101474.13
2023-09-17T02:22:32.262Z,101473.81
2023-09-17T02:27:31.287Z,101470.16
2023-09-17T02:32:30.377Z,101465.22
2023-09-17T02:37:30.666Z,101471.59
2023-09-17T02:42:29.732Z,101469.75
2023-09-17T02:47:29.854Z,101478.38
2023-09-17T02:52:30.466Z,101477.66
2023-09-17T02:57:29.709Z,101483.09
2023-09-17T03:02:29.481Z,101479.53
2023-09-17T03:07:28.670Z,101474.09
2023-09-17T03:12:29.057Z,101478.31
2023-09-17T03:17:28.735Z,101481.47
2023-09-17T03:22:27.817Z,101481.59
2023-09-17T03:27:28.625Z,101479.44
2023-09-17T03:32:27.820Z,101482.63
2023-09-17T03:37:27.251Z,101481.03
2023-09-17T03:42:26.556Z,101480.28
2023-09-17T03:47:26.987Z,101477.56
2023-09-17T03:52:26.748Z,101480.16
2023-09-17T03:57:25.854Z,101487.91
2023-09-17T04:02:27.089Z,101489.53
2023-09-17T04:07:26.194Z,101488.09
2023-09-17T04:12:25.120Z,101497.59
2023-09-17T04:17:24.345Z,101492.16
2023-09-17T04:22:25.161Z,101489.94
2023-09-17T04:27:24.030Z,101491.66
2023-09-17T04:32:23.052Z,101496.50
2023-09-17T04:37:22.678Z,101493.81
2023-09-17T04:42:23.327Z,101495.66
2023-09-17T04:47:22.493Z,101494.09
2023-09-17T04:52:21.557Z,101501.00
2023-09-17T04:57:20.627Z,101504.50
2023-09-17T05:02:23.291Z,101499.88
2023-09-17T05:07:23.221Z,101503.44
2023-09-17T05:12:22.594Z,101497.34
2023-09-17T05:17:23.327Z,101500.91
2023-09-17T05:22:22.496Z,101507.84
2023-09-17T05:27:21.715Z,101507.03
2023-09-17T05:32:22.499Z,101505.69
2023-09-17T05:37:21.731Z,101499.28
2023-09-17T05:42:21.794Z,101504.19
2023-09-17T05:47:23.421Z,101503.81
2023-09-17T05:52:22.579Z,101511.03
2023-09-17T05:57:21.608Z,101520.00
2023-09-17T06:02:20.770Z,101521.41
2023-09-17T06:07:21.354Z,101517.75
2023-09-17T06:12:21.023Z,101531.19
2023-09-17T06:17:20.301Z,101526.00
2023-09-17T06:22:21.047Z,101535.94
2023-09-17T06:27:20.609Z,101547.63
2023-09-17T06:32:20.031Z,101543.75
2023-09-17T06:37:20.816Z,101549.81
2023-09-17T06:42:21.739Z,101556.34
2023-09-17T06:47:22.965Z,101560.84
2023-09-17T06:52:26.740Z,101558.59
2023-09-17T06:57:26.222Z,101558.31
2023-09-17T07:02:25.691Z,101554.41
2023-09-17T07:07:26.022Z,101556.66
2023-09-17T07:12:25.124Z,101561.50
2023-09-17T07:17:24.203Z,101557.47
2023-09-17T07:22:23.415Z,101562.72
2023-09-17T07:27:23.743Z,101566.25
2023-09-17T07:32:22.748Z,101565.25
2023-09-17T07:37:25.755Z,101580.53
2023-09-17T07:42:31.345Z,101577.50
2023-09-17T07:47:30.248Z,101571.78
2023-09-17T07:52:29.325Z,101565.31
2023-09-17T07:57:28.360Z,101567.53
2023-09-17T08:02:28.789Z,101557.31
2023-09-17T08:07:28.038Z,101555.25
2023-09-17T08:12:27.030Z,101556.59
2023-09-17T08:17:26.601Z,101543.72
2023-09-17T08:22:35.455Z,101546.22
2023-09-17T08:27:35.031Z,101537.72
2023-09-17T08:32:34.847Z,101531.56
2023-09-17T08:37:40.880Z,101534.81
2023-09-17T08:42:41.420Z,101532.50
2023-09-17T08:47:40.824Z,101527.56
2023-09-17T08:52:45.384Z,101530.25
2023-09-17T08:57:48.957Z,101529.94
2023-09-17T09:02:52.200Z,101519.97
2023-09-17T09:07:54.414Z,101515.22
2023-09-17T09:13:06.240Z,101519.38
2023-09-17T09:18:05.860Z,101509.16
2023-09-17T09:23:07.247Z,101519.19
2023-09-17T09:28:07.174Z,101514.38
2023-09-17T09:33:06.726Z,101504.06
2023-09-17T09:38:07.533Z,101503.31
2023-09-17T09:43:06.912Z,101500.22
2023-09-17T09:48:16.229Z,101486.72
2023-09-17T09:53:16.852Z,101493.25
2023-09-17T09:58:16.827Z,101486.31
2023-09-17T10:03:18.723Z,101493.56
2023-09-17T10:08:20.604Z,101482.13
2023-09-17T10:13:19.773Z,101488.34
2023-09-17T10:18:21.080Z,101477.63
2023-09-17T10:23:23.109Z,101483.66
2023-09-17T10:28:29.464Z,101481.44
2023-09-17T10:33:29.925Z,101487.47
2023-09-17T10:38:33.400Z,101490.13
2023-09-17T10:43:33.888Z,101485.25
2023-09-17T10:48:34.616Z,101475.47
2023-09-17T10:53:34.989Z,101471.75
2023-09-17T10:58:42.488Z,101470.53
2023-09-17T11:03:45.470Z,101460.66
2023-09-17T11:08:47.865Z,101463.81
2023-09-17T11:13:48.236Z,101462.44
2023-09-17T11:19:06.846Z,101464.91
2023-09-17T11:24:12.230Z,101468.34
2023-09-17T11:29:13.098Z,101453.78
2023-09-17T11:34:12.280Z,101462.34
2023-09-17T11:39:17.274Z,101449.28
2023-09-17T11:44:17.362Z,101436.28
2023-09-17T11:49:17.504Z,101433.75
2023-09-17T11:54:20.739Z,101428.50
2023-09-17T11:59:20.308Z,101422.78
2023-09-17T12:04:19.889Z,101412.88
2023-09-17T12:09:50.179Z,101397.19
2023-09-17T12:14:58.123Z,101388.03
2023-09-17T12:20:42.235Z,101381.13
2023-09-17T12:25:46.735Z,101378.31
2023-09-17T12:30:45.993Z,101374.72
2023-09-17T12:35:45.024Z,101361.31
2023-09-17T12:40:45.704Z,101355.88
2023-09-17T12:45:45.403Z,101350.44
2023-09-17T12:50:45.546Z,101344.34
2023-09-17T12:55:46.294Z,101347.69
2023-09-17T13:00:45.530Z,101342.25
2023-09-17T13:05:47.708Z,101336.84
2023-09-17T13:10:48.432Z,101337.91
2023-09-17T13:15:48.106Z,101332.28
2023-09-17T13:20:48.120Z,101329.22
2023-09-17T13:25:53.316Z,101330.97
2023-09-17T13:30:52.681Z,101324.00
2023-09-17T13:35:53.191Z,101309.97
2023-09-17T13:40:54.839Z,101326.22
2023-09-17T13:45:55.020Z,101321.91
2023-09-17T13:50:54.686Z,101314.19
2023-09-17T13:55:56.140Z,101301.16
2023-09-17T14:00:55.053Z,101297.88
2023-09-17T14:05:53.937Z,101314.31
2023-09-17T14:10:54.308Z,101308.56
2023-09-17T14:15:55.378Z,101304.31
2023-09-17T14:20:54.254Z,101296.34
2023-09-17T14:25:54.621Z,101304.28
2023-09-17T14:30:55.329Z,101309.41
2023-09-17T14:35:54.916Z,101320.66
2023-09-17T14:40:55.599Z,101310.28
2023-09-17T14:45:55.156Z,101310.84
2023-09-17T14:50:54.769Z,101314.91
2023-09-17T14:55:55.563Z,101316.84
2023-09-17T15:00:54.599Z,101318.25
2023-09-17T15:05:53.789Z,101323.13
2023-09-17T15:10:53.378Z,101324.16
2023-09-17T15:15:53.631Z,101328.38
2023-09-17T15:20:52.622Z,101319.22
2023-09-17T15:25:51.925Z,101318.16
2023-09-17T15:30:51.618Z,101329.13
2023-09-17T15:35:53.869Z,101327.34
2023-09-17T15:40:53.449Z,101323.88
2023-09-17T15:45:52.975Z,101330.38
2023-09-17T15:50:53.451Z,101324.78
2023-09-17T15:55:54.478Z,101324.00
2023-09-17T16:00:53.675Z,101340.16
2023-09-17T16:05:54.441Z,101330.44
2023-09-17T16:10:54.181Z,101334.97
2023-09-17T16:15:53.818Z,101343.88
2023-09-17T16:20:54.409Z,101335.97
2023-09-17T16:25:53.445Z,101347.06
2023-09-17T16:30:52.559Z,101346.47
2023-09-17T16:35:51.556Z,101349.03
2023-09-17T16:40:51.947Z,101350.94
2023-09-17T16:45:52.004Z,101355.13
2023-09-17T16:50:50.887Z,101356.81
2023-09-17T16:55:51.692Z,101369.97
2023-09-17T17:00:51.851Z,101372.66
2023-09-17T17:05:54.320Z,101379.31
2023-09-17T17:10:55.413Z,101390.47
2023-09-17T17:15:56.861Z,101391.13
2023-09-17T17:20:56.503Z,101391.66
2023-09-17T17:25:57.337Z,101405.13
2023-09-17T17:31:07.181Z,101406.50
2023-09-17T17:36:07.872Z,101407.69
2023-09-17T17:41:09.889Z,101417.47
2023-09-17T17:46:09.295Z,101427.53
2023-09-17T17:51:08.662Z,101431.25
2023-09-17T17:56:11.357Z,101437.00
2023-09-17T18:01:10.811Z,101447.78
2023-09-17T18:06:10.046Z,101451.34
2023-09-17T18:11:10.574Z,101452.84
2023-09-17T18:16:10.929Z,101456.56
2023-09-17T18:21:10.001Z,101468.03
2023-09-17T18:26:10.437Z,101470.78
2023-09-17T18:31:14.454Z,101477.97
2023-09-17T18:36:14.043Z,101478.66
2023-09-17T18:41:16.373Z,101479.31
2023-09-17T18:46:19.440Z,101477.66
2023-09-17T18:51:21.524Z,101477.72
2023-09-17T18:56:22.512Z,101474.88
2023-09-17T19:01:21.888Z,101477.56
2023-09-17T19:06:22.581Z,101473.41
2023-09-17T19:11:23.378Z,101473.44
2023-09-17T19:16:22.716Z,101483.03
2023-09-17T19:21:21.837Z,101480.06
2023-09-17T19:26:23.143Z,101480.59
2023-09-17T19:31:22.347Z,101483.28
2023-09-17T19:36:21.900Z,101491.13
2023-09-17T19:41:22.311Z,101489.53
2023-09-17T19:46:21.889Z,101479.25
2023-09-17T19:51:21.343Z,101481.75
2023-09-17T19:56:22.748Z,101492.09
2023-09-17T20:01:22.021Z,101504.69
2023-09-17T20:06:22.609Z,101503.84
2023-09-17T20:11:26.518Z,101505.16
2023-09-17T20:16:26.139Z,101497.41
2023-09-17T20:21:25.309Z,101498.69
2023-09-17T20:32:01.950Z,101501.28
2023-09-17T20:37:02.636Z,101498.41
2023-09-17T20:42:04.473Z,101509.47
2023-09-17T20:47:05.471Z,101504.22
2023-09-17T20:52:04.928Z,101497.59
2023-09-17T20:57:06.093Z,101506.38
2023-09-17T21:02:05.610Z,101496.16
2023-09-17T21:07:05.474Z,101495.84
2023-09-17T21:12:06.443Z,101496.47
2023-09-17T21:17:06.301Z,101504.66
2023-09-17T21:22:08.042Z,101497.84
2023-09-17T21:27:08.846Z,101494.75
2023-09-17T21:32:08.177Z,101500.94
2023-09-17T21:37:07.277Z,101497.28
2023-09-17T21:42:06.904Z,101497.00
2023-09-17T21:47:07.491Z,101492.91
2023-09-17T21:52:06.617Z,101486.22
2023-09-17T21:57:17.392Z,101483.44
2023-09-17T22:02:18.346Z,101491.59
2023-09-17T22:07:18.738Z,101486.22
2023-09-17T22:12:17.914Z,101490.03
2023-09-17T22:17:20.184Z,101485.81
2023-09-17T22:22:19.701Z,101493.72
2023-09-17T22:27:18.908Z,101486.22
2023-09-17T22:32:19.312Z,101489.72
2023-09-17T22:37:18.712Z,101485.09
2023-09-17T22:42:17.616Z,101474.22
2023-09-17T22:47:17.690Z,101483.50
2023-09-17T22:52:18.120Z,101476.13
2023-09-17T22:57:17.398Z,101475.66
2023-09-17T23:02:16.487Z,101478.88
2023-09-17T23:07:15.732Z,101480.81
2023-09-17T23:12:16.426Z,101479.44
2023-09-17T23:17:18.134Z,101485.63
2023-09-17T23:22:17.204Z,101484.31
2023-09-17T23:27:17.639Z,101493.22
2023-09-17T23:32:16.605Z,101483.63
2023-09-17T23:37:16.528Z,101480.53
2023-09-17T23:42:15.494Z,101480.94
2023-09-17T23:47:15.902Z,101483.84
2023-09-17T23:52:15.597Z,101475.44
2023-09-17T23:57:15.357Z,101468.41
